Terminal Aerodrome Forecast
Issued by NWS Sterling, VA

Home | Current Version | Previous Version | Text Only | Print | Product List | Glossary On
Versions: 1 2 3 4 5 6 7 8 9 10 11 12 13 14 15 16 17 18 19 20 21 22 23
674
FTUS41 KLWX 080520
TAFBWI
TAF
KBWI 080520Z 0806/0912 01006KT P6SM OVC200
     FM081600 09007KT P6SM OVC030
     FM090000 10007KT 3SM -RASN OVC012
     FM090300 09008KT 1SM -SN OVC008=

USA.gov is the U.S. government's official web portal to all federal, state and local government web resources and services.